Time;durP1;ratioP1;P1;durP2;ratioP2;P2;SDS_P1;SDS_P2;PMS_P1;PMS_P2;Temp;Humidity;BMP_temperature;BMP_pressure;BME280_temperature;BME280_humidity;BME280_pressure;Samples;Min_cycle;Max_cycle;Signal;HPM_P1;HPM_P2
2023/10/22 00:01:04;;;;;;;0.00;0.00;;;16.00;70.00;;;;;;5009118;28;20959;-31
2023/10/22 00:03:31;;;;;;;0.00;0.00;;;16.00;70.80;;;;;;5008797;28;20371;-32
2023/10/22 00:06:01;;;;;;;0.00;0.00;;;16.00;70.10;;;;;;4991864;28;20206;-32
2023/10/22 00:08:29;;;;;;;0.00;0.00;;;16.00;70.10;;;;;;5008786;28;20560;-32
2023/10/22 00:11:01;;;;;;;0.00;0.00;;;16.00;70.10;;;;;;5009207;28;20501;-31
2023/10/22 00:13:30;;;;;;;0.00;0.00;;;16.00;70.10;;;;;;5006866;28;20230;-31
2023/10/22 00:16:02;;;;;;;0.00;0.00;;;16.00;70.10;;;;;;5009270;28;20202;-32
2023/10/22 00:18:32;;;;;;;0.00;0.00;;;16.00;70.20;;;;;;5007698;28;20220;-32
2023/10/22 00:20:59;;;;;;;0.00;0.00;;;16.00;70.10;;;;;;5011415;28;20304;-31
2023/10/22 00:23:29;;;;;;;0.00;0.00;;;16.00;70.20;;;;;;4995605;28;20197;-32
2023/10/22 00:25:58;;;;;;;0.00;0.00;;;16.00;70.20;;;;;;5012525;28;20210;-32
2023/10/22 00:28:27;;;;;;;0.00;0.00;;;16.00;70.20;;;;;;5011939;28;20211;-32
2023/10/22 00:31:01;;;;;;;0.00;0.00;;;16.00;70.20;;;;;;5013089;28;20599;-32
2023/10/22 00:33:28;;;;;;;0.00;0.00;;;16.00;70.20;;;;;;5012417;28;20208;-32
2023/10/22 00:36:03;;;;;;;0.00;0.00;;;16.00;70.10;;;;;;5011226;28;20210;-31
2023/10/22 00:38:30;;;;;;;0.00;0.00;;;16.00;70.20;;;;;;5013303;28;20217;-32
2023/10/22 00:40:59;;;;;;;0.00;0.00;;;16.00;70.10;;;;;;5030838;28;20223;-32
2023/10/22 00:43:26;;;;;;;0.00;0.00;;;16.00;70.20;;;;;;5026350;28;20930;-32
2023/10/22 00:45:59;;;;;;;0.00;0.00;;;16.00;70.20;;;;;;5012421;28;20252;-32
2023/10/22 00:48:34;;;;;;;0.00;0.00;;;16.00;70.20;;;;;;5010285;28;20208;-31
2023/10/22 00:51:09;;;;;;;0.00;0.00;;;16.00;70.90;;;;;;5010588;28;20272;-32
2023/10/22 00:53:36;;;;;;;0.00;0.00;;;16.00;70.10;;;;;;5012167;28;20965;-32
2023/10/22 00:56:06;;;;;;;0.00;0.00;;;16.00;70.10;;;;;;5012004;28;20202;-31
2023/10/22 00:58:37;;;;;;;0.00;0.00;;;16.00;70.10;;;;;;5016594;28;20246;-31
2023/10/22 01:01:08;;;;;;;0.00;0.00;;;16.00;70.20;;;;;;5012067;28;20194;-32
2023/10/22 01:03:38;;;;;;;0.00;0.00;;;16.00;70.20;;;;;;5014557;28;20835;-31
2023/10/22 01:06:06;;;;;;;0.00;0.00;;;16.00;70.20;;;;;;5011219;28;20220;-31
2023/10/22 01:08:35;;;;;;;0.00;0.00;;;16.00;70.30;;;;;;5011721;28;20229;-32
2023/10/22 01:11:09;;;;;;;0.00;0.00;;;16.00;70.30;;;;;;5012351;28;20200;-32
2023/10/22 01:13:39;;;;;;;0.00;0.00;;;16.00;70.30;;;;;;5011736;28;20304;-33
2023/10/22 01:16:09;;;;;;;0.00;0.00;;;16.00;70.30;;;;;;5013261;28;20648;-31
2023/10/22 01:18:36;;;;;;;0.00;0.00;;;15.90;70.30;;;;;;5014372;28;20197;-31
2023/10/22 01:21:09;;;;;;;0.00;0.00;;;16.00;70.30;;;;;;5018718;28;20232;-31
2023/10/22 01:23:37;;;;;;;0.00;0.00;;;16.00;70.40;;;;;;5013887;28;20263;-31
2023/10/22 01:26:07;;;;;;;0.00;0.00;;;16.00;70.40;;;;;;5023055;28;20216;-32
2023/10/22 01:28:37;;;;;;;0.00;0.00;;;16.00;70.40;;;;;;5030728;28;20185;-32
2023/10/22 01:31:04;;;;;;;0.00;0.00;;;16.00;70.40;;;;;;5028746;28;20593;-32
2023/10/22 01:33:32;;;;;;;0.00;0.00;;;16.00;71.20;;;;;;5029779;28;20263;-31
2023/10/22 01:36:00;;;;;;;0.00;0.00;;;16.00;70.40;;;;;;5029439;28;20201;-32
2023/10/22 01:38:27;;;;;;;0.00;0.00;;;16.00;70.30;;;;;;5030871;28;20205;-32
2023/10/22 01:40:57;;;;;;;0.00;0.00;;;16.00;70.30;;;;;;5029741;28;20204;-32
2023/10/22 01:43:24;;;;;;;0.00;0.00;;;16.00;70.40;;;;;;5023589;28;20190;-32
2023/10/22 01:45:52;;;;;;;0.00;0.00;;;16.00;70.30;;;;;;5010091;28;20613;-32
2023/10/22 01:48:19;;;;;;;0.00;0.00;;;16.00;70.40;;;;;;5011895;28;20197;-32
2023/10/22 01:50:49;;;;;;;0.00;0.00;;;16.00;70.30;;;;;;5009854;28;20895;-32
2023/10/22 01:53:18;;;;;;;0.00;0.00;;;16.00;70.40;;;;;;5011541;28;20753;-31
2023/10/22 01:55:45;;;;;;;0.00;0.00;;;16.00;70.30;;;;;;5011393;28;20288;-32
2023/10/22 01:58:15;;;;;;;0.00;0.00;;;16.00;70.20;;;;;;5009485;28;20579;-32
2023/10/22 02:00:42;;;;;;;0.00;0.00;;;16.00;70.20;;;;;;5010820;28;20292;-32
2023/10/22 02:03:09;;;;;;;0.00;0.00;;;16.00;70.20;;;;;;5010781;28;20249;-32
2023/10/22 02:05:39;;;;;;;0.00;0.00;;;16.00;70.20;;;;;;5011169;28;20727;-31
2023/10/22 02:08:08;;;;;;;0.00;0.00;;;16.00;70.20;;;;;;5025696;28;20205;-32
2023/10/22 02:10:37;;;;;;;0.00;0.00;;;16.00;70.20;;;;;;5009340;28;20225;-32
2023/10/22 02:13:09;;;;;;;0.00;0.00;;;16.00;70.20;;;;;;5009031;28;20220;-32
2023/10/22 02:15:37;;;;;;;0.00;0.00;;;16.00;70.10;;;;;;5008738;28;20216;-31
2023/10/22 02:18:04;;;;;;;0.00;0.00;;;16.00;70.10;;;;;;5009199;28;20227;-31
2023/10/22 02:20:34;;;;;;;0.00;0.00;;;15.90;70.00;;;;;;5009158;28;20676;-32
2023/10/22 02:23:03;;;;;;;0.00;0.00;;;15.90;70.00;;;;;;5009012;28;20312;-32
2023/10/22 02:25:32;;;;;;;0.00;0.00;;;15.90;70.00;;;;;;5009171;28;20194;-32
2023/10/22 02:28:02;;;;;;;0.00;0.00;;;15.90;69.90;;;;;;5023327;28;20217;-32
2023/10/22 02:30:31;;;;;;;0.00;0.00;;;15.90;69.90;;;;;;5028438;28;20335;-32
2023/10/22 02:32:58;;;;;;;0.00;0.00;;;15.80;69.80;;;;;;5030167;28;20217;-32
2023/10/22 02:35:26;;;;;;;0.00;0.00;;;15.80;69.80;;;;;;5028838;28;20672;-32
2023/10/22 02:37:53;;;;;;;0.00;0.00;;;15.80;70.10;;;;;;5030277;28;20839;-32
2023/10/22 02:40:20;;;;;;;0.00;0.00;;;15.80;69.90;;;;;;5028731;28;20224;-32
2023/10/22 02:42:48;;;;;;;0.00;0.00;;;15.80;70.00;;;;;;5028256;28;20217;-32
2023/10/22 02:45:19;;;;;;;0.00;0.00;;;15.80;70.10;;;;;;5029532;28;20205;-31
2023/10/22 02:47:49;;;;;;;0.00;0.00;;;15.80;70.10;;;;;;5028708;28;20204;-32
2023/10/22 02:50:21;;;;;;;0.00;0.00;;;15.80;70.00;;;;;;5028312;28;20559;-31
2023/10/22 02:52:54;;;;;;;0.00;0.00;;;15.70;69.90;;;;;;5012479;28;20215;-32
2023/10/22 02:55:21;;;;;;;0.00;0.00;;;15.70;70.00;;;;;;5028387;28;20304;-31
2023/10/22 02:57:48;;;;;;;0.00;0.00;;;15.70;69.90;;;;;;5029312;28;20209;-31
2023/10/22 03:00:15;;;;;;;0.00;0.00;;;15.70;69.90;;;;;;5027449;28;20232;-32
2023/10/22 03:03:04;;;;;;;0.00;0.00;;;15.70;69.90;;;;;;5029452;28;20252;-32
2023/10/22 03:05:36;;;;;;;0.00;0.00;;;15.60;69.80;;;;;;5029373;28;20303;-31
2023/10/22 03:08:06;;;;;;;0.00;0.00;;;15.60;69.80;;;;;;5029386;28;20201;-32
2023/10/22 03:10:39;;;;;;;0.00;0.00;;;15.70;69.90;;;;;;5027974;28;20229;-31
2023/10/22 03:13:06;;;;;;;0.00;0.00;;;15.60;69.90;;;;;;5024330;28;20190;-32
2023/10/22 03:15:36;;;;;;;0.00;0.00;;;15.60;69.90;;;;;;5009332;28;20261;-32
2023/10/22 03:18:07;;;;;;;0.00;0.00;;;15.60;69.90;;;;;;5020947;28;20206;-31
2023/10/22 03:20:36;;;;;;;0.00;0.00;;;15.60;69.80;;;;;;4992468;28;20198;-32
2023/10/22 03:23:06;;;;;;;0.00;0.00;;;15.60;69.90;;;;;;5010008;28;20201;-32
2023/10/22 03:25:39;;;;;;;0.00;0.00;;;15.60;69.90;;;;;;5009641;28;20224;-32
2023/10/22 03:28:06;;;;;;;0.00;0.00;;;15.60;69.90;;;;;;5008100;28;20198;-32
2023/10/22 03:30:37;;;;;;;0.00;0.00;;;15.60;69.90;;;;;;5009156;28;20685;-32
2023/10/22 03:33:07;;;;;;;0.00;0.00;;;15.60;70.00;;;;;;5008239;28;20218;-32
2023/10/22 03:35:37;;;;;;;0.00;0.00;;;15.60;70.00;;;;;;4991985;28;20202;-32
2023/10/22 03:38:06;;;;;;;0.00;0.00;;;15.60;70.00;;;;;;5009383;28;20248;-32
2023/10/22 03:40:36;;;;;;;0.00;0.00;;;15.50;69.90;;;;;;4991767;28;20585;-32
2023/10/22 03:43:08;;;;;;;0.00;0.00;;;15.50;69.80;;;;;;5007569;28;20217;-31
2023/10/22 03:45:35;;;;;;;0.00;0.00;;;15.50;69.80;;;;;;5009100;28;20204;-31
2023/10/22 03:48:04;;;;;;;0.00;0.00;;;15.50;69.80;;;;;;5008054;28;20212;-31
2023/10/22 03:50:36;;;;;;;0.00;0.00;;;15.50;69.90;;;;;;5009326;28;20236;-32
2023/10/22 03:53:08;;;;;;;0.00;0.00;;;15.50;69.90;;;;;;5008851;28;20329;-32
2023/10/22 03:55:40;;;;;;;0.00;0.00;;;15.50;69.90;;;;;;5008916;28;20207;-32
2023/10/22 03:58:07;;;;;;;0.00;0.00;;;15.50;69.90;;;;;;5008790;28;20201;-31
2023/10/22 04:00:34;;;;;;;0.00;0.00;;;15.50;69.90;;;;;;5007130;28;20208;-31
2023/10/22 04:03:04;;;;;;;0.00;0.00;;;15.50;69.90;;;;;;5008831;28;20612;-32
2023/10/22 04:05:33;;;;;;;0.00;0.00;;;15.40;69.80;;;;;;5008986;28;20205;-32
2023/10/22 04:08:07;;;;;;;0.00;0.00;;;15.50;70.00;;;;;;5007501;28;20252;-31
2023/10/22 04:10:44;;;;;;;0.00;0.00;;;15.50;69.90;;;;;;5008792;28;20231;-31
2023/10/22 04:13:13;;;;;;;0.00;0.00;;;15.40;69.80;;;;;;5031482;28;20233;-32
2023/10/22 04:15:40;;;;;;;0.00;0.00;;;15.40;69.80;;;;;;5007118;28;20221;-32
2023/10/22 04:18:10;;;;;;;0.00;0.00;;;15.40;69.80;;;;;;5018577;28;20704;-32
2023/10/22 04:20:40;;;;;;;0.00;0.00;;;15.40;69.80;;;;;;5009097;28;20204;-31
2023/10/22 04:23:10;;;;;;;0.00;0.00;;;15.40;69.80;;;;;;5007814;28;20228;-32
2023/10/22 04:25:43;;;;;;;0.00;0.00;;;15.40;69.90;;;;;;5011236;28;20770;-31
2023/10/22 04:28:16;;;;;;;0.00;0.00;;;15.30;69.80;;;;;;5008975;28;20245;-31
2023/10/22 04:30:44;;;;;;;0.00;0.00;;;15.30;69.90;;;;;;5018360;28;20655;-31
2023/10/22 04:33:14;;;;;;;0.00;0.00;;;15.30;69.90;;;;;;5009119;28;20205;-31
2023/10/22 04:35:41;;;;;;;0.00;0.00;;;15.30;70.00;;;;;;5007857;28;20758;-31
2023/10/22 04:38:13;;;;;;;0.00;0.00;;;15.30;70.00;;;;;;5012112;28;20193;-32
2023/10/22 04:40:41;;;;;;;0.00;0.00;;;15.30;70.00;;;;;;5028660;28;20233;-32
2023/10/22 04:43:12;;;;;;;0.00;0.00;;;15.30;70.00;;;;;;5029289;28;20213;-32
2023/10/22 04:45:46;;;;;;;0.00;0.00;;;15.30;70.00;;;;;;5017580;28;20301;-31
2023/10/22 04:48:13;;;;;;;0.00;0.00;;;15.30;70.00;;;;;;5015831;28;20658;-32
2023/10/22 04:50:44;;;;;;;0.00;0.00;;;15.30;70.00;;;;;;5023624;28;20235;-32
2023/10/22 04:53:12;;;;;;;0.00;0.00;;;15.30;70.00;;;;;;5007770;28;20284;-31
2023/10/22 04:55:39;;;;;;;0.00;0.00;;;15.30;70.00;;;;;;5009814;28;20193;-31
2023/10/22 04:58:06;;;;;;;0.00;0.00;;;15.30;70.00;;;;;;5006941;28;20194;-31
2023/10/22 05:00:33;;;;;;;0.00;0.00;;;15.30;70.00;;;;;;5021821;28;20223;-31
2023/10/22 05:03:03;;;;;;;0.00;0.00;;;15.30;70.00;;;;;;5027403;28;20247;-32
2023/10/22 05:05:30;;;;;;;0.00;0.00;;;15.30;70.00;;;;;;5024200;28;20707;-31
2023/10/22 05:07:57;;;;;;;0.00;0.00;;;15.30;70.00;;;;;;5010985;28;20210;-31
2023/10/22 05:10:29;;;;;;;0.00;0.00;;;15.30;70.00;;;;;;5007025;28;20217;-32
2023/10/22 05:12:59;;;;;;;0.00;0.00;;;15.20;70.00;;;;;;5016374;28;20201;-32
2023/10/22 05:15:28;;;;;;;0.00;0.00;;;15.20;69.90;;;;;;5012937;28;20300;-31
2023/10/22 05:17:57;;;;;;;0.00;0.00;;;15.20;69.90;;;;;;5013051;28;20217;-32
2023/10/22 05:20:30;;;;;;;0.00;0.00;;;15.20;69.90;;;;;;5028220;28;20715;-31
2023/10/22 05:22:57;;;;;;;0.00;0.00;;;15.20;69.90;;;;;;5018585;28;20272;-32
2023/10/22 05:25:24;;;;;;;0.00;0.00;;;15.20;69.90;;;;;;5022502;28;20204;-31
2023/10/22 05:27:54;;;;;;;0.00;0.00;;;15.20;69.90;;;;;;5014126;28;20637;-31
2023/10/22 05:30:23;;;;;;;0.00;0.00;;;15.20;70.00;;;;;;5039927;28;21027;-38
2023/10/22 05:32:53;;;;;;;0.00;0.00;;;15.20;70.10;;;;;;5031653;28;20189;-32
2023/10/22 05:35:24;;;;;;;0.00;0.00;;;15.10;70.00;;;;;;5013839;28;20263;-32
2023/10/22 05:37:51;;;;;;;0.00;0.00;;;15.20;70.10;;;;;;5025874;28;20754;-32
2023/10/22 05:40:19;;;;;;;0.00;0.00;;;15.10;70.80;;;;;;5013720;28;20229;-31
2023/10/22 05:42:46;;;;;;;0.00;0.00;;;15.10;70.00;;;;;;5021740;28;20201;-32
2023/10/22 05:45:15;;;;;;;0.00;0.00;;;15.10;70.10;;;;;;5010220;28;20249;-32
2023/10/22 05:47:45;;;;;;;0.00;0.00;;;15.10;70.00;;;;;;5026091;28;20206;-31
2023/10/22 05:50:12;;;;;;;0.00;0.00;;;15.10;70.10;;;;;;5011018;28;20268;-32
2023/10/22 05:52:44;;;;;;;0.00;0.00;;;15.10;70.20;;;;;;5023845;28;20292;-31
2023/10/22 05:55:13;;;;;;;0.00;0.00;;;15.10;70.10;;;;;;5011727;28;20264;-32
2023/10/22 05:57:42;;;;;;;0.00;0.00;;;15.10;70.10;;;;;;5014960;28;20200;-32
2023/10/22 06:00:13;;;;;;;0.00;0.00;;;15.10;70.10;;;;;;5025198;28;20209;-32
2023/10/22 06:02:43;;;;;;;0.00;0.00;;;15.10;70.10;;;;;;5018352;28;20271;-31
2023/10/22 06:05:13;;;;;;;0.00;0.00;;;15.10;70.10;;;;;;5018829;28;20201;-31
2023/10/22 06:07:53;;;;;;;0.00;0.00;;;15.10;70.10;;;;;;5031652;28;20302;-31
2023/10/22 06:10:20;;;;;;;0.00;0.00;;;15.10;70.20;;;;;;5031404;28;20282;-31
2023/10/22 06:12:50;;;;;;;0.00;0.00;;;15.10;70.20;;;;;;5030074;28;20200;-31
2023/10/22 06:15:20;;;;;;;0.00;0.00;;;15.10;70.30;;;;;;5019720;28;20284;-32
2023/10/22 06:17:51;;;;;;;0.00;0.00;;;15.10;70.30;;;;;;5009282;28;20214;-31
2023/10/22 06:20:18;;;;;;;0.00;0.00;;;15.10;70.60;;;;;;5021476;28;20205;-31
2023/10/22 06:22:46;;;;;;;0.00;0.00;;;15.10;70.30;;;;;;5029027;28;20216;-32
2023/10/22 06:25:15;;;;;;;0.00;0.00;;;15.10;70.30;;;;;;5021843;28;20204;-31
2023/10/22 06:27:44;;;;;;;0.00;0.00;;;15.10;70.30;;;;;;5008812;28;20215;-32
2023/10/22 06:30:14;;;;;;;0.00;0.00;;;15.10;70.30;;;;;;5017576;28;20717;-31
2023/10/22 06:32:42;;;;;;;0.00;0.00;;;15.10;70.30;;;;;;5028560;28;20224;-31
2023/10/22 06:35:11;;;;;;;0.00;0.00;;;15.10;70.30;;;;;;5018774;28;20209;-31
2023/10/22 06:37:38;;;;;;;0.00;0.00;;;15.20;70.40;;;;;;5028536;28;20205;-31
2023/10/22 06:40:07;;;;;;;0.00;0.00;;;15.10;70.40;;;;;;5022365;28;20296;-32
2023/10/22 06:42:34;;;;;;;0.00;0.00;;;15.10;70.40;;;;;;5008618;28;20197;-31
2023/10/22 06:45:05;;;;;;;0.00;0.00;;;15.10;70.40;;;;;;5008897;28;20809;-32
2023/10/22 06:47:37;;;;;;;0.00;0.00;;;15.20;70.50;;;;;;5012513;28;20293;-32
2023/10/22 06:50:08;;;;;;;0.00;0.00;;;15.20;70.50;;;;;;5015181;28;20217;-31
2023/10/22 06:52:36;;;;;;;0.00;0.00;;;15.20;70.50;;;;;;5008513;28;20315;-32
2023/10/22 06:55:05;;;;;;;0.00;0.00;;;15.20;70.50;;;;;;5009099;28;20224;-31
2023/10/22 06:57:32;;;;;;;0.00;0.00;;;15.20;70.80;;;;;;5024088;28;20198;-31
2023/10/22 07:00:02;;;;;;;0.00;0.00;;;15.20;70.60;;;;;;5006844;28;20252;-31
2023/10/22 07:02:35;;;;;;;0.00;0.00;;;15.20;70.50;;;;;;5009905;28;20237;-31
2023/10/22 07:05:03;;;;;;;0.00;0.00;;;15.20;70.60;;;;;;5017154;28;20660;-31
2023/10/22 07:07:30;;;;;;;0.00;0.00;;;15.20;71.40;;;;;;5027657;28;20292;-31
2023/10/22 07:09:59;;;;;;;0.00;0.00;;;15.20;70.60;;;;;;5027379;28;20706;-30
2023/10/22 07:12:26;;;;;;;0.00;0.00;;;15.30;70.70;;;;;;5027627;28;20217;-32
2023/10/22 07:14:56;;;;;;;0.00;0.00;;;15.30;70.70;;;;;;5021411;28;20260;-31
2023/10/22 07:17:23;;;;;;;0.00;0.00;;;15.30;70.80;;;;;;5026746;28;20215;-31
2023/10/22 07:19:55;;;;;;;0.00;0.00;;;15.30;70.80;;;;;;5022149;28;20210;-31
2023/10/22 07:22:22;;;;;;;0.00;0.00;;;15.30;70.80;;;;;;5008855;28;20336;-32
2023/10/22 07:24:52;;;;;;;0.00;0.00;;;15.30;70.80;;;;;;5007194;28;20739;-31
2023/10/22 07:27:21;;;;;;;0.00;0.00;;;15.30;70.80;;;;;;5042509;28;20250;-31
2023/10/22 07:29:51;;;;;;;0.00;0.00;;;15.40;70.80;;;;;;5025402;28;20212;-31
2023/10/22 07:32:23;;;;;;;0.00;0.00;;;15.40;70.80;;;;;;5027057;28;20231;-32
2023/10/22 07:34:53;;;;;;;0.00;0.00;;;15.40;70.90;;;;;;5028863;28;20679;-32
2023/10/22 07:37:20;;;;;;;0.00;0.00;;;15.40;70.90;;;;;;5008876;28;20219;-31
2023/10/22 07:39:49;;;;;;;0.00;0.00;;;15.40;70.80;;;;;;5019850;28;20202;-32
2023/10/22 07:42:19;;;;;;;0.00;0.00;;;15.40;70.90;;;;;;5008427;28;20197;-31
2023/10/22 07:44:50;;;;;;;0.00;0.00;;;15.40;70.90;;;;;;5006559;28;20217;-31
2023/10/22 07:47:19;;;;;;;0.00;0.00;;;15.40;71.00;;;;;;5015639;28;20229;-31
2023/10/22 07:49:53;;;;;;;0.00;0.00;;;15.40;71.00;;;;;;5008459;28;20288;-31
2023/10/22 07:52:22;;;;;;;0.00;0.00;;;15.50;71.10;;;;;;5008901;28;20236;-33
2023/10/22 07:54:52;;;;;;;0.00;0.00;;;15.50;71.10;;;;;;5018894;28;20284;-31
2023/10/22 07:57:21;;;;;;;0.00;0.00;;;15.50;71.10;;;;;;5023803;28;20201;-31
2023/10/22 07:59:48;;;;;;;0.00;0.00;;;15.50;71.10;;;;;;5025940;28;20193;-31
2023/10/22 08:02:20;;;;;;;0.00;0.00;;;15.50;71.10;;;;;;5043014;28;20715;-31
2023/10/22 08:04:48;;;;;;;0.00;0.00;;;15.50;71.20;;;;;;5011767;28;20209;-31
2023/10/22 08:07:19;;;;;;;0.00;0.00;;;15.60;71.20;;;;;;5007898;28;20201;-31
2023/10/22 08:09:49;;;;;;;0.00;0.00;;;15.60;71.20;;;;;;5008540;28;20628;-31
2023/10/22 08:12:18;;;;;;;0.00;0.00;;;15.70;71.30;;;;;;5014104;28;20846;-31
2023/10/22 08:14:45;;;;;;;0.00;0.00;;;15.70;71.30;;;;;;5019468;28;20216;-31
2023/10/22 08:17:13;;;;;;;0.00;0.00;;;15.70;71.30;;;;;;5018895;28;20204;-30
2023/10/22 08:19:40;;;;;;;0.00;0.00;;;15.70;71.20;;;;;;5008219;28;20205;-31
2023/10/22 08:22:07;;;;;;;0.00;0.00;;;15.70;71.20;;;;;;5007577;28;20209;-31
2023/10/22 08:24:34;;;;;;;0.00;0.00;;;15.70;71.30;;;;;;5025468;28;20455;-30
2023/10/22 08:27:07;;;;;;;0.00;0.00;;;15.70;71.30;;;;;;5022331;28;20214;-31
2023/10/22 08:29:39;;;;;;;0.00;0.00;;;15.80;71.40;;;;;;5009690;28;20243;-30
2023/10/22 08:32:09;;;;;;;0.00;0.00;;;15.80;71.30;;;;;;5016798;28;20250;-31
2023/10/22 08:34:39;;;;;;;0.00;0.00;;;15.90;71.30;;;;;;5015023;28;20189;-31
2023/10/22 08:37:08;;;;;;;0.00;0.00;;;15.90;71.40;;;;;;5008704;28;20260;-31
2023/10/22 08:39:35;;;;;;;0.00;0.00;;;15.80;71.30;;;;;;5010083;28;20293;-30
2023/10/22 08:42:11;;;;;;;0.00;0.00;;;15.90;71.30;;;;;;5013172;28;20204;-31
2023/10/22 08:44:46;;;;;;;0.00;0.00;;;15.90;71.40;;;;;;5022096;28;20674;-31
2023/10/22 08:47:13;;;;;;;0.00;0.00;;;15.90;71.50;;;;;;5029176;28;20220;-31
2023/10/22 08:49:41;;;;;;;0.00;0.00;;;16.00;71.50;;;;;;5028273;28;20240;-31
2023/10/22 08:52:13;;;;;;;0.00;0.00;;;16.00;71.50;;;;;;5017393;28;20315;-31
2023/10/22 08:54:40;;;;;;;0.00;0.00;;;16.00;71.50;;;;;;5009774;28;20301;-31
2023/10/22 08:57:12;;;;;;;0.00;0.00;;;16.00;71.50;;;;;;5026174;28;20201;-31
2023/10/22 08:59:44;;;;;;;0.00;0.00;;;16.10;71.60;;;;;;5011214;28;20872;-31
2023/10/22 09:02:26;;;;;;;0.00;0.00;;;16.10;71.60;;;;;;5013247;28;20237;-31
2023/10/22 09:04:58;;;;;;;0.00;0.00;;;16.10;71.50;;;;;;5025469;28;20266;-31
2023/10/22 09:07:55;;;;;;;0.00;0.00;;;16.10;71.60;;;;;;5014302;28;20205;-31
2023/10/22 09:10:31;;;;;;;0.00;0.00;;;16.20;71.70;;;;;;5030408;28;20208;-31
2023/10/22 09:13:06;;;;;;;0.00;0.00;;;16.20;71.70;;;;;;5025590;28;20615;-31
2023/10/22 09:15:45;;;;;;;0.00;0.00;;;16.20;71.70;;;;;;5029545;28;20204;-31
2023/10/22 09:18:17;;;;;;;0.00;0.00;;;16.30;71.80;;;;;;5025593;28;20201;-30
2023/10/22 09:20:48;;;;;;;0.00;0.00;;;16.30;71.80;;;;;;5025277;28;20648;-31
2023/10/22 09:23:22;;;;;;;0.00;0.00;;;16.30;71.70;;;;;;5030309;28;20205;-31
2023/10/22 09:25:56;;;;;;;0.00;0.00;;;16.30;71.60;;;;;;5024347;28;20728;-31
2023/10/22 09:28:27;;;;;;;0.00;0.00;;;16.40;71.60;;;;;;5020886;28;20292;-31
2023/10/22 09:31:01;;;;;;;0.00;0.00;;;16.40;71.60;;;;;;5028877;28;20834;-32
2023/10/22 09:33:35;;;;;;;0.00;0.00;;;16.40;71.60;;;;;;5024801;28;20550;-31
2023/10/22 09:36:12;;;;;;;0.00;0.00;;;16.40;71.60;;;;;;5011091;28;20215;-32
2023/10/22 09:38:39;;;;;;;0.00;0.00;;;16.40;71.60;;;;;;5017288;28;20742;-31
2023/10/22 09:41:09;;;;;;;0.00;0.00;;;16.50;71.70;;;;;;5008677;28;20595;-31
2023/10/22 09:43:41;;;;;;;0.00;0.00;;;16.50;71.70;;;;;;5006582;28;20204;-31
2023/10/22 09:46:11;;;;;;;0.00;0.00;;;16.50;71.70;;;;;;5006613;28;20268;-31
2023/10/22 09:48:41;;;;;;;0.00;0.00;;;16.50;71.80;;;;;;5013956;28;20197;-31
2023/10/22 09:51:11;;;;;;;0.00;0.00;;;16.50;71.80;;;;;;5025483;28;20232;-32
2023/10/22 09:54:05;;;;;;;0.00;0.00;;;16.60;71.80;;;;;;5040192;28;20672;-31
2023/10/22 09:56:36;;;;;;;0.00;0.00;;;16.60;71.80;;;;;;5030110;28;20302;-32
2023/10/22 09:59:07;;;;;;;0.00;0.00;;;16.60;71.80;;;;;;5017093;28;20225;-31
2023/10/22 10:01:37;;;;;;;0.00;0.00;;;16.60;71.80;;;;;;5007567;28;20702;-31
2023/10/22 10:04:08;;;;;;;0.00;0.00;;;16.70;71.80;;;;;;5005811;28;20202;-31
2023/10/22 10:06:37;;;;;;;0.00;0.00;;;16.70;71.80;;;;;;5005806;28;20198;-31
2023/10/22 10:09:12;;;;;;;0.00;0.00;;;16.70;71.80;;;;;;5014634;28;20388;-31
2023/10/22 10:11:42;;;;;;;0.00;0.00;;;16.70;71.80;;;;;;5024401;28;20341;-31
2023/10/22 10:14:35;;;;;;;0.00;0.00;;;16.80;71.80;;;;;;4991648;28;20212;-31
2023/10/22 10:17:05;;;;;;;0.00;0.00;;;16.80;71.90;;;;;;5020579;28;20245;-31
2023/10/22 10:19:37;;;;;;;0.00;0.00;;;16.80;72.00;;;;;;5027049;28;20196;-32
2023/10/22 10:22:10;;;;;;;0.00;0.00;;;16.80;72.10;;;;;;5025051;28;20556;-32
2023/10/22 10:24:37;;;;;;;0.00;0.00;;;16.90;72.20;;;;;;5016155;28;20214;-32
2023/10/22 10:27:07;;;;;;;0.00;0.00;;;17.00;72.20;;;;;;5028007;28;20205;-32
2023/10/22 10:29:37;;;;;;;0.00;0.00;;;17.00;72.10;;;;;;5025968;28;20692;-31
2023/10/22 10:32:15;;;;;;;0.00;0.00;;;17.00;72.00;;;;;;5008532;28;20773;-30
2023/10/22 10:34:49;;;;;;;0.00;0.00;;;17.10;72.00;;;;;;5029487;28;20267;-30
2023/10/22 10:37:20;;;;;;;0.00;0.00;;;17.10;71.90;;;;;;5026208;28;20248;-32
2023/10/22 10:39:49;;;;;;;0.00;0.00;;;17.10;71.70;;;;;;5010250;28;20202;-31
2023/10/22 10:42:30;;;;;;;0.00;0.00;;;17.10;71.70;;;;;;5012502;28;20226;-31
2023/10/22 10:44:58;;;;;;;0.00;0.00;;;17.10;71.80;;;;;;5019509;28;20205;-31
2023/10/22 10:47:25;;;;;;;0.00;0.00;;;17.10;71.80;;;;;;5028460;28;20567;-31
2023/10/22 10:50:07;;;;;;;0.00;0.00;;;17.10;71.90;;;;;;5020025;28;20698;-31
2023/10/22 10:52:34;;;;;;;0.00;0.00;;;17.10;71.90;;;;;;5021782;28;20249;-31
2023/10/22 10:55:19;;;;;;;0.00;0.00;;;17.10;71.90;;;;;;5009537;28;20604;-31
2023/10/22 10:57:55;;;;;;;0.00;0.00;;;17.10;71.90;;;;;;5019365;28;20205;-31
2023/10/22 11:00:26;;;;;;;0.00;0.00;;;17.10;71.80;;;;;;5024210;28;20299;-31
2023/10/22 11:02:57;;;;;;;0.00;0.00;;;17.10;71.90;;;;;;5023782;28;20243;-31
2023/10/22 11:05:37;;;;;;;0.00;0.00;;;17.10;71.90;;;;;;5022689;28;20252;-32
2023/10/22 11:08:18;;;;;;;0.00;0.00;;;17.20;72.00;;;;;;5009155;28;20675;-31
2023/10/22 11:10:46;;;;;;;0.00;0.00;;;17.20;71.90;;;;;;5012542;28;20221;-30
2023/10/22 11:13:16;;;;;;;0.00;0.00;;;17.20;71.80;;;;;;5022289;28;20220;-31
2023/10/22 11:15:45;;;;;;;0.00;0.00;;;17.20;71.80;;;;;;5027444;28;20207;-31
2023/10/22 11:18:14;;;;;;;0.00;0.00;;;17.20;71.80;;;;;;5020035;28;20298;-31
2023/10/22 11:20:55;;;;;;;0.00;0.00;;;17.20;71.80;;;;;;5013556;28;20227;-31
2023/10/22 11:23:23;;;;;;;0.00;0.00;;;17.30;71.80;;;;;;5022048;28;20211;-31
2023/10/22 11:25:50;;;;;;;0.00;0.00;;;17.20;71.80;;;;;;5007480;28;20197;-32
2023/10/22 11:28:20;;;;;;;0.00;0.00;;;17.30;71.80;;;;;;5008541;28;20316;-31
2023/10/22 11:30:48;;;;;;;0.00;0.00;;;17.30;71.80;;;;;;5008697;28;20204;-31
2023/10/22 11:33:32;;;;;;;0.00;0.00;;;17.30;71.80;;;;;;5007320;28;20327;-32
2023/10/22 11:36:00;;;;;;;0.00;0.00;;;17.30;72.60;;;;;;5006457;28;20473;-31
2023/10/22 11:38:29;;;;;;;0.00;0.00;;;17.30;71.90;;;;;;5004698;28;20680;-31
2023/10/22 11:41:03;;;;;;;0.00;0.00;;;17.30;71.90;;;;;;5006813;28;20206;-31
2023/10/22 11:43:36;;;;;;;0.00;0.00;;;17.30;72.00;;;;;;5017778;28;20267;-30
2023/10/22 11:46:03;;;;;;;0.00;0.00;;;17.30;71.90;;;;;;5008147;28;20580;-31
2023/10/22 11:48:32;;;;;;;0.00;0.00;;;17.40;72.00;;;;;;5019003;28;20189;-31
2023/10/22 11:51:03;;;;;;;0.00;0.00;;;17.40;71.90;;;;;;5017370;28;20292;-31
2023/10/22 11:53:41;;;;;;;0.00;0.00;;;17.40;71.80;;;;;;5006868;28;20320;-31
2023/10/22 11:56:11;;;;;;;0.00;0.00;;;17.40;71.80;;;;;;5008782;28;20232;-31
2023/10/22 11:58:38;;;;;;;0.00;0.00;;;17.40;71.80;;;;;;5019610;28;20201;-31
2023/10/22 12:01:07;;;;;;;0.00;0.00;;;17.40;71.80;;;;;;5017402;28;20255;-31
2023/10/22 12:03:36;;;;;;;0.00;0.00;;;17.40;72.50;;;;;;4990375;28;20216;-31
2023/10/22 12:06:06;;;;;;;0.00;0.00;;;17.40;71.80;;;;;;5009829;28;20738;-31
2023/10/22 12:08:36;;;;;;;0.00;0.00;;;17.40;71.80;;;;;;5013086;28;20209;-31
2023/10/22 12:11:08;;;;;;;0.00;0.00;;;17.40;71.90;;;;;;5007799;28;20214;-31
2023/10/22 12:13:37;;;;;;;0.00;0.00;;;17.50;72.00;;;;;;5013019;28;20233;-31
2023/10/22 12:16:09;;;;;;;0.00;0.00;;;17.50;72.00;;;;;;5007833;28;20672;-31
2023/10/22 12:18:36;;;;;;;0.00;0.00;;;17.50;71.90;;;;;;5013576;28;20224;-31
2023/10/22 12:21:08;;;;;;;0.00;0.00;;;17.50;71.80;;;;;;5027353;28;20895;-31
2023/10/22 12:23:35;;;;;;;0.00;0.00;;;17.50;71.70;;;;;;4996392;28;20216;-31
2023/10/22 12:26:17;;;;;;;0.00;0.00;;;17.50;71.70;;;;;;5005672;28;20239;-31
2023/10/22 12:28:47;;;;;;;0.00;0.00;;;17.50;71.70;;;;;;5006955;28;21043;-31
2023/10/22 12:31:16;;;;;;;0.00;0.00;;;17.50;72.50;;;;;;5022646;28;20286;-31
2023/10/22 12:33:48;;;;;;;0.00;0.00;;;17.50;71.70;;;;;;5010669;28;20336;-30
2023/10/22 12:36:16;;;;;;;0.00;0.00;;;17.60;71.80;;;;;;5013987;28;20222;-31
2023/10/22 12:38:43;;;;;;;0.00;0.00;;;17.60;71.80;;;;;;5013516;28;20210;-30
2023/10/22 12:41:10;;;;;;;0.00;0.00;;;17.60;72.50;;;;;;5021699;28;20296;-31
2023/10/22 12:43:37;;;;;;;0.00;0.00;;;17.60;71.80;;;;;;5024536;28;20295;-30
2023/10/22 12:46:04;;;;;;;0.00;0.00;;;17.60;71.80;;;;;;5028129;28;20212;-31
2023/10/22 12:48:37;;;;;;;0.00;0.00;;;17.60;71.80;;;;;;5008046;28;20912;-30
2023/10/22 12:51:06;;;;;;;0.00;0.00;;;17.60;71.70;;;;;;5006898;28;20201;-30
2023/10/22 12:53:36;;;;;;;0.00;0.00;;;17.60;71.60;;;;;;5014662;28;20965;-31
2023/10/22 12:56:03;;;;;;;0.00;0.00;;;17.60;71.60;;;;;;5020728;28;20237;-30
2023/10/22 12:58:31;;;;;;;0.00;0.00;;;17.60;71.50;;;;;;5022759;28;20293;-31
2023/10/22 13:00:58;;;;;;;0.00;0.00;;;17.60;71.60;;;;;;5024874;28;20213;-31
2023/10/22 13:03:29;;;;;;;0.00;0.00;;;17.60;71.70;;;;;;5024492;28;20268;-30